sensor_id;sensor_type;location;lat;lon;timestamp;P1;durP1;ratioP1;P2;durP2;ratioP2
44384;SDS011;30101;32.778;34.994;2022-10-16T00:02:47;14.77;;;8.98;;
44384;SDS011;30101;32.778;34.994;2022-10-16T00:07:50;10.98;;;8.38;;
44384;SDS011;30101;32.778;34.994;2022-10-16T00:12:54;12.60;;;9.43;;
44384;SDS011;30101;32.778;34.994;2022-10-16T00:18:01;17.58;;;9.70;;
44384;SDS011;30101;32.778;34.994;2022-10-16T00:23:05;14.30;;;9.05;;
44384;SDS011;30101;32.778;34.994;2022-10-16T00:28:09;14.25;;;9.70;;
44384;SDS011;30101;32.778;34.994;2022-10-16T00:33:14;14.80;;;9.35;;
44384;SDS011;30101;32.778;34.994;2022-10-16T00:38:17;12.00;;;9.63;;
44384;SDS011;30101;32.778;34.994;2022-10-16T00:48:52;10.65;;;9.35;;
44384;SDS011;30101;32.778;34.994;2022-10-16T00:53:58;14.50;;;9.93;;
44384;SDS011;30101;32.778;34.994;2022-10-16T00:59:06;12.02;;;8.88;;
44384;SDS011;30101;32.778;34.994;2022-10-16T01:04:16;16.67;;;10.57;;
44384;SDS011;30101;32.778;34.994;2022-10-16T01:09:24;16.77;;;9.48;;
44384;SDS011;30101;32.778;34.994;2022-10-16T01:20:10;16.83;;;8.82;;
44384;SDS011;30101;32.778;34.994;2022-10-16T01:25:35;13.38;;;9.27;;
44384;SDS011;30101;32.778;34.994;2022-10-16T01:30:58;10.32;;;8.52;;
44384;SDS011;30101;32.778;34.994;2022-10-16T01:36:06;12.73;;;8.77;;
44384;SDS011;30101;32.778;34.994;2022-10-16T01:46:50;11.48;;;7.90;;
44384;SDS011;30101;32.778;34.994;2022-10-16T01:51:56;14.75;;;8.30;;
44384;SDS011;30101;32.778;34.994;2022-10-16T01:57:08;17.45;;;7.72;;
44384;SDS011;30101;32.778;34.994;2022-10-16T02:02:13;11.93;;;7.72;;
44384;SDS011;30101;32.778;34.994;2022-10-16T02:07:20;13.43;;;6.57;;
44384;SDS011;30101;32.778;34.994;2022-10-16T02:12:26;14.20;;;6.78;;
44384;SDS011;30101;32.778;34.994;2022-10-16T02:17:33;12.35;;;7.38;;
44384;SDS011;30101;32.778;34.994;2022-10-16T02:22:46;9.95;;;7.30;;
44384;SDS011;30101;32.778;34.994;2022-10-16T02:27:54;11.68;;;7.18;;
44384;SDS011;30101;32.778;34.994;2022-10-16T02:33:11;10.80;;;7.18;;
44384;SDS011;30101;32.778;34.994;2022-10-16T02:38:18;11.63;;;6.93;;
44384;SDS011;30101;32.778;34.994;2022-10-16T02:43:24;15.02;;;7.40;;
44384;SDS011;30101;32.778;34.994;2022-10-16T02:48:28;11.38;;;7.50;;
44384;SDS011;30101;32.778;34.994;2022-10-16T02:53:32;16.70;;;7.53;;
44384;SDS011;30101;32.778;34.994;2022-10-16T02:58:36;13.88;;;8.18;;
44384;SDS011;30101;32.778;34.994;2022-10-16T03:03:39;12.85;;;7.72;;
44384;SDS011;30101;32.778;34.994;2022-10-16T03:08:43;14.43;;;7.78;;
44384;SDS011;30101;32.778;34.994;2022-10-16T03:13:46;12.20;;;7.53;;
44384;SDS011;30101;32.778;34.994;2022-10-16T03:18:50;17.52;;;8.48;;
44384;SDS011;30101;32.778;34.994;2022-10-16T03:23:53;12.05;;;7.20;;
44384;SDS011;30101;32.778;34.994;2022-10-16T03:28:57;10.93;;;7.15;;
44384;SDS011;30101;32.778;34.994;2022-10-16T03:34:00;9.20;;;6.13;;
44384;SDS011;30101;32.778;34.994;2022-10-16T03:39:03;9.95;;;6.20;;
44384;SDS011;30101;32.778;34.994;2022-10-16T03:44:07;12.77;;;5.72;;
44384;SDS011;30101;32.778;34.994;2022-10-16T03:49:10;14.60;;;6.40;;
44384;SDS011;30101;32.778;34.994;2022-10-16T03:54:14;11.32;;;6.45;;
44384;SDS011;30101;32.778;34.994;2022-10-16T03:59:17;9.50;;;5.63;;
44384;SDS011;30101;32.778;34.994;2022-10-16T04:04:21;12.07;;;6.10;;
44384;SDS011;30101;32.778;34.994;2022-10-16T04:09:24;11.88;;;6.00;;
44384;SDS011;30101;32.778;34.994;2022-10-16T04:14:29;13.25;;;6.50;;
44384;SDS011;30101;32.778;34.994;2022-10-16T04:19:32;19.23;;;5.78;;
44384;SDS011;30101;32.778;34.994;2022-10-16T04:24:36;14.13;;;5.85;;
44384;SDS011;30101;32.778;34.994;2022-10-16T04:29:40;8.38;;;5.88;;
44384;SDS011;30101;32.778;34.994;2022-10-16T04:34:43;11.15;;;5.57;;
44384;SDS011;30101;32.778;34.994;2022-10-16T04:39:47;8.35;;;4.93;;
44384;SDS011;30101;32.778;34.994;2022-10-16T04:44:51;12.65;;;5.70;;
44384;SDS011;30101;32.778;34.994;2022-10-16T04:49:55;17.75;;;6.07;;
44384;SDS011;30101;32.778;34.994;2022-10-16T04:54:58;16.02;;;6.05;;
44384;SDS011;30101;32.778;34.994;2022-10-16T05:00:03;11.65;;;5.78;;
44384;SDS011;30101;32.778;34.994;2022-10-16T05:05:06;13.32;;;6.40;;
44384;SDS011;30101;32.778;34.994;2022-10-16T05:10:10;16.48;;;6.45;;
44384;SDS011;30101;32.778;34.994;2022-10-16T05:15:14;11.48;;;6.18;;
44384;SDS011;30101;32.778;34.994;2022-10-16T05:20:22;16.80;;;6.47;;
44384;SDS011;30101;32.778;34.994;2022-10-16T05:25:28;12.35;;;5.72;;
44384;SDS011;30101;32.778;34.994;2022-10-16T05:30:32;10.60;;;5.75;;
44384;SDS011;30101;32.778;34.994;2022-10-16T05:35:35;17.50;;;5.85;;
44384;SDS011;30101;32.778;34.994;2022-10-16T05:40:38;13.95;;;5.57;;
44384;SDS011;30101;32.778;34.994;2022-10-16T05:45:42;13.23;;;6.72;;
44384;SDS011;30101;32.778;34.994;2022-10-16T05:50:45;12.10;;;6.25;;
44384;SDS011;30101;32.778;34.994;2022-10-16T05:55:52;11.43;;;5.10;;
44384;SDS011;30101;32.778;34.994;2022-10-16T06:00:56;13.25;;;5.97;;
44384;SDS011;30101;32.778;34.994;2022-10-16T06:11:18;10.52;;;5.60;;
44384;SDS011;30101;32.778;34.994;2022-10-16T06:16:23;16.67;;;5.63;;
44384;SDS011;30101;32.778;34.994;2022-10-16T06:21:28;11.30;;;5.85;;
44384;SDS011;30101;32.778;34.994;2022-10-16T06:26:32;9.50;;;4.80;;
44384;SDS011;30101;32.778;34.994;2022-10-16T06:31:35;13.98;;;5.45;;
44384;SDS011;30101;32.778;34.994;2022-10-16T06:36:39;13.18;;;5.63;;
44384;SDS011;30101;32.778;34.994;2022-10-16T06:41:42;9.98;;;5.57;;
44384;SDS011;30101;32.778;34.994;2022-10-16T06:46:52;14.50;;;5.78;;
44384;SDS011;30101;32.778;34.994;2022-10-16T06:51:55;13.07;;;5.07;;
44384;SDS011;30101;32.778;34.994;2022-10-16T06:56:59;9.73;;;5.78;;
44384;SDS011;30101;32.778;34.994;2022-10-16T07:02:02;12.38;;;5.38;;
44384;SDS011;30101;32.778;34.994;2022-10-16T07:07:06;20.95;;;5.28;;
44384;SDS011;30101;32.778;34.994;2022-10-16T07:12:11;14.63;;;5.57;;
44384;SDS011;30101;32.778;34.994;2022-10-16T07:17:14;12.18;;;5.50;;
44384;SDS011;30101;32.778;34.994;2022-10-16T07:22:17;11.23;;;5.10;;
44384;SDS011;30101;32.778;34.994;2022-10-16T07:27:21;11.60;;;5.45;;
44384;SDS011;30101;32.778;34.994;2022-10-16T07:32:26;14.20;;;5.57;;
44384;SDS011;30101;32.778;34.994;2022-10-16T07:37:37;12.68;;;5.75;;
44384;SDS011;30101;32.778;34.994;2022-10-16T07:42:41;12.80;;;4.88;;
44384;SDS011;30101;32.778;34.994;2022-10-16T07:47:44;12.43;;;5.40;;
44384;SDS011;30101;32.778;34.994;2022-10-16T07:52:48;7.15;;;5.38;;
44384;SDS011;30101;32.778;34.994;2022-10-16T07:57:52;13.27;;;5.28;;
44384;SDS011;30101;32.778;34.994;2022-10-16T08:02:56;17.75;;;5.13;;
44384;SDS011;30101;32.778;34.994;2022-10-16T08:08:02;12.23;;;4.75;;
44384;SDS011;30101;32.778;34.994;2022-10-16T08:13:05;22.95;;;5.70;;
44384;SDS011;30101;32.778;34.994;2022-10-16T08:18:14;20.58;;;4.65;;
44384;SDS011;30101;32.778;34.994;2022-10-16T08:23:18;14.02;;;5.32;;
44384;SDS011;30101;32.778;34.994;2022-10-16T08:28:22;13.45;;;4.72;;
44384;SDS011;30101;32.778;34.994;2022-10-16T08:33:26;15.32;;;6.45;;
44384;SDS011;30101;32.778;34.994;2022-10-16T08:38:29;12.52;;;4.50;;
44384;SDS011;30101;32.778;34.994;2022-10-16T08:48:47;22.17;;;5.43;;
44384;SDS011;30101;32.778;34.994;2022-10-16T08:54:08;10.98;;;5.13;;
44384;SDS011;30101;32.778;34.994;2022-10-16T08:59:17;12.25;;;5.60;;
44384;SDS011;30101;32.778;34.994;2022-10-16T09:10:12;14.45;;;6.38;;
44384;SDS011;30101;32.778;34.994;2022-10-16T09:15:25;17.20;;;5.55;;
44384;SDS011;30101;32.778;34.994;2022-10-16T09:26:22;12.07;;;5.63;;
44384;SDS011;30101;32.778;34.994;2022-10-16T09:31:31;13.38;;;6.05;;
44384;SDS011;30101;32.778;34.994;2022-10-16T09:36:41;14.35;;;6.65;;
44384;SDS011;30101;32.778;34.994;2022-10-16T09:41:48;13.43;;;6.38;;
44384;SDS011;30101;32.778;34.994;2022-10-16T09:52:29;21.02;;;7.78;;
44384;SDS011;30101;32.778;34.994;2022-10-16T09:57:33;14.07;;;7.30;;
44384;SDS011;30101;32.778;34.994;2022-10-16T10:02:37;17.08;;;7.85;;
44384;SDS011;30101;32.778;34.994;2022-10-16T10:07:42;13.27;;;8.10;;
44384;SDS011;30101;32.778;34.994;2022-10-16T10:12:47;14.68;;;7.20;;
44384;SDS011;30101;32.778;34.994;2022-10-16T10:17:51;13.35;;;8.70;;
44384;SDS011;30101;32.778;34.994;2022-10-16T10:22:55;12.27;;;8.27;;
44384;SDS011;30101;32.778;34.994;2022-10-16T10:28:18;15.07;;;8.90;;
44384;SDS011;30101;32.778;34.994;2022-10-16T10:49:49;11.48;;;6.68;;
44384;SDS011;30101;32.778;34.994;2022-10-16T11:05:41;29.30;;;7.85;;
44384;SDS011;30101;32.778;34.994;2022-10-16T11:16:01;18.20;;;6.55;;
44384;SDS011;30101;32.778;34.994;2022-10-16T11:21:11;25.40;;;7.72;;
44384;SDS011;30101;32.778;34.994;2022-10-16T11:26:21;20.00;;;4.93;;
44384;SDS011;30101;32.778;34.994;2022-10-16T11:31:48;22.67;;;4.90;;
44384;SDS011;30101;32.778;34.994;2022-10-16T11:37:05;15.02;;;3.83;;
44384;SDS011;30101;32.778;34.994;2022-10-16T11:42:40;18.60;;;3.85;;
44384;SDS011;30101;32.778;34.994;2022-10-16T11:47:51;18.55;;;3.90;;
44384;SDS011;30101;32.778;34.994;2022-10-16T11:58:32;16.92;;;4.40;;
44384;SDS011;30101;32.778;34.994;2022-10-16T12:03:43;13.52;;;3.13;;
44384;SDS011;30101;32.778;34.994;2022-10-16T12:09:02;21.42;;;4.25;;
44384;SDS011;30101;32.778;34.994;2022-10-16T12:19:19;20.75;;;4.55;;
44384;SDS011;30101;32.778;34.994;2022-10-16T12:24:39;19.75;;;3.78;;
44384;SDS011;30101;32.778;34.994;2022-10-16T12:34:48;18.10;;;3.03;;
44384;SDS011;30101;32.778;34.994;2022-10-16T12:39:53;21.23;;;3.75;;
44384;SDS011;30101;32.778;34.994;2022-10-16T12:44:58;12.27;;;3.10;;
44384;SDS011;30101;32.778;34.994;2022-10-16T12:50:27;25.15;;;2.83;;
44384;SDS011;30101;32.778;34.994;2022-10-16T12:55:43;24.33;;;5.22;;
44384;SDS011;30101;32.778;34.994;2022-10-16T13:06:57;13.27;;;3.58;;
44384;SDS011;30101;32.778;34.994;2022-10-16T13:12:32;14.27;;;3.58;;
44384;SDS011;30101;32.778;34.994;2022-10-16T13:28:28;11.95;;;2.60;;
44384;SDS011;30101;32.778;34.994;2022-10-16T13:33:36;15.48;;;3.50;;
44384;SDS011;30101;32.778;34.994;2022-10-16T13:38:42;17.30;;;4.30;;
44384;SDS011;30101;32.778;34.994;2022-10-16T13:43:46;14.23;;;2.97;;
44384;SDS011;30101;32.778;34.994;2022-10-16T13:48:57;15.80;;;3.25;;
44384;SDS011;30101;32.778;34.994;2022-10-16T13:54:04;16.83;;;3.05;;
44384;SDS011;30101;32.778;34.994;2022-10-16T13:59:22;18.17;;;4.00;;
44384;SDS011;30101;32.778;34.994;2022-10-16T14:04:30;13.25;;;3.72;;
44384;SDS011;30101;32.778;34.994;2022-10-16T14:09:36;17.23;;;2.90;;
44384;SDS011;30101;32.778;34.994;2022-10-16T14:14:41;18.52;;;3.10;;
44384;SDS011;30101;32.778;34.994;2022-10-16T14:19:49;14.25;;;3.35;;
44384;SDS011;30101;32.778;34.994;2022-10-16T14:25:16;11.27;;;2.80;;
44384;SDS011;30101;32.778;34.994;2022-10-16T14:30:24;11.20;;;2.85;;
44384;SDS011;30101;32.778;34.994;2022-10-16T14:35:36;9.23;;;2.50;;
44384;SDS011;30101;32.778;34.994;2022-10-16T14:40:45;13.90;;;3.03;;
44384;SDS011;30101;32.778;34.994;2022-10-16T14:45:52;8.10;;;2.50;;
44384;SDS011;30101;32.778;34.994;2022-10-16T14:50:58;12.98;;;4.07;;
44384;SDS011;30101;32.778;34.994;2022-10-16T14:56:07;11.80;;;3.47;;
44384;SDS011;30101;32.778;34.994;2022-10-16T15:01:19;21.02;;;3.88;;
44384;SDS011;30101;32.778;34.994;2022-10-16T15:06:22;12.23;;;3.20;;
44384;SDS011;30101;32.778;34.994;2022-10-16T15:11:26;14.70;;;3.40;;
44384;SDS011;30101;32.778;34.994;2022-10-16T15:16:30;17.75;;;3.67;;
44384;SDS011;30101;32.778;34.994;2022-10-16T15:21:34;12.30;;;3.13;;
44384;SDS011;30101;32.778;34.994;2022-10-16T15:26:38;13.65;;;3.97;;
44384;SDS011;30101;32.778;34.994;2022-10-16T15:31:41;16.23;;;3.33;;
44384;SDS011;30101;32.778;34.994;2022-10-16T15:36:45;13.30;;;3.42;;
44384;SDS011;30101;32.778;34.994;2022-10-16T15:41:48;22.38;;;5.90;;
44384;SDS011;30101;32.778;34.994;2022-10-16T15:46:53;15.52;;;4.30;;
44384;SDS011;30101;32.778;34.994;2022-10-16T15:51:58;14.38;;;4.18;;
44384;SDS011;30101;32.778;34.994;2022-10-16T15:57:02;18.75;;;4.40;;
44384;SDS011;30101;32.778;34.994;2022-10-16T16:02:11;20.50;;;4.70;;
44384;SDS011;30101;32.778;34.994;2022-10-16T16:07:16;17.33;;;5.05;;
44384;SDS011;30101;32.778;34.994;2022-10-16T16:12:20;25.13;;;6.10;;
44384;SDS011;30101;32.778;34.994;2022-10-16T16:17:23;24.50;;;6.28;;
44384;SDS011;30101;32.778;34.994;2022-10-16T16:22:27;16.85;;;4.93;;
44384;SDS011;30101;32.778;34.994;2022-10-16T16:27:31;20.20;;;6.30;;
44384;SDS011;30101;32.778;34.994;2022-10-16T16:32:35;22.75;;;5.95;;
44384;SDS011;30101;32.778;34.994;2022-10-16T16:37:38;32.42;;;5.68;;
44384;SDS011;30101;32.778;34.994;2022-10-16T16:42:42;22.05;;;5.47;;
44384;SDS011;30101;32.778;34.994;2022-10-16T16:47:45;18.98;;;5.70;;
44384;SDS011;30101;32.778;34.994;2022-10-16T16:52:52;16.92;;;4.90;;
44384;SDS011;30101;32.778;34.994;2022-10-16T16:57:55;19.75;;;5.85;;
44384;SDS011;30101;32.778;34.994;2022-10-16T17:03:01;16.23;;;5.05;;
44384;SDS011;30101;32.778;34.994;2022-10-16T17:08:08;21.95;;;5.68;;
44384;SDS011;30101;32.778;34.994;2022-10-16T17:13:12;14.13;;;5.43;;
44384;SDS011;30101;32.778;34.994;2022-10-16T17:18:15;20.20;;;4.90;;
44384;SDS011;30101;32.778;34.994;2022-10-16T17:23:19;18.98;;;5.25;;
44384;SDS011;30101;32.778;34.994;2022-10-16T17:28:22;20.60;;;5.93;;
44384;SDS011;30101;32.778;34.994;2022-10-16T17:33:26;17.23;;;4.80;;
44384;SDS011;30101;32.778;34.994;2022-10-16T17:38:31;14.05;;;4.50;;
44384;SDS011;30101;32.778;34.994;2022-10-16T17:43:36;9.18;;;4.15;;
44384;SDS011;30101;32.778;34.994;2022-10-16T17:48:41;18.52;;;4.78;;
44384;SDS011;30101;32.778;34.994;2022-10-16T17:53:57;9.85;;;4.22;;
44384;SDS011;30101;32.778;34.994;2022-10-16T17:59:03;12.93;;;4.47;;
44384;SDS011;30101;32.778;34.994;2022-10-16T18:04:08;9.77;;;4.15;;
44384;SDS011;30101;32.778;34.994;2022-10-16T18:09:14;20.95;;;4.95;;
44384;SDS011;30101;32.778;34.994;2022-10-16T18:14:19;10.65;;;4.72;;
44384;SDS011;30101;32.778;34.994;2022-10-16T18:19:23;16.95;;;4.05;;
44384;SDS011;30101;32.778;34.994;2022-10-16T18:24:27;9.93;;;4.57;;
44384;SDS011;30101;32.778;34.994;2022-10-16T18:29:31;10.77;;;5.15;;
44384;SDS011;30101;32.778;34.994;2022-10-16T18:34:34;16.83;;;4.90;;
44384;SDS011;30101;32.778;34.994;2022-10-16T18:39:38;13.43;;;4.53;;
44384;SDS011;30101;32.778;34.994;2022-10-16T18:44:41;12.35;;;4.38;;
44384;SDS011;30101;32.778;34.994;2022-10-16T18:49:47;17.90;;;4.88;;
44384;SDS011;30101;32.778;34.994;2022-10-16T18:54:54;9.30;;;4.28;;
44384;SDS011;30101;32.778;34.994;2022-10-16T18:59:58;11.10;;;3.95;;
44384;SDS011;30101;32.778;34.994;2022-10-16T19:05:04;17.00;;;4.55;;
44384;SDS011;30101;32.778;34.994;2022-10-16T19:10:10;13.45;;;4.55;;
44384;SDS011;30101;32.778;34.994;2022-10-16T19:15:14;13.55;;;4.80;;
44384;SDS011;30101;32.778;34.994;2022-10-16T19:20:18;13.93;;;4.70;;
44384;SDS011;30101;32.778;34.994;2022-10-16T19:25:21;15.60;;;4.70;;
44384;SDS011;30101;32.778;34.994;2022-10-16T19:30:25;15.50;;;4.03;;
44384;SDS011;30101;32.778;34.994;2022-10-16T19:35:29;18.23;;;5.07;;
44384;SDS011;30101;32.778;34.994;2022-10-16T19:40:32;12.02;;;4.30;;
44384;SDS011;30101;32.778;34.994;2022-10-16T19:45:36;17.27;;;4.93;;
44384;SDS011;30101;32.778;34.994;2022-10-16T19:50:44;13.00;;;4.68;;
44384;SDS011;30101;32.778;34.994;2022-10-16T19:55:48;10.25;;;4.28;;
44384;SDS011;30101;32.778;34.994;2022-10-16T20:00:52;15.70;;;4.10;;
44384;SDS011;30101;32.778;34.994;2022-10-16T20:05:55;11.10;;;4.57;;
44384;SDS011;30101;32.778;34.994;2022-10-16T20:10:59;19.23;;;5.45;;
44384;SDS011;30101;32.778;34.994;2022-10-16T20:16:03;21.33;;;5.38;;
44384;SDS011;30101;32.778;34.994;2022-10-16T20:21:12;13.43;;;5.82;;
44384;SDS011;30101;32.778;34.994;2022-10-16T20:26:20;16.73;;;5.27;;
44384;SDS011;30101;32.778;34.994;2022-10-16T20:31:26;15.15;;;4.53;;
44384;SDS011;30101;32.778;34.994;2022-10-16T20:36:32;14.00;;;5.47;;
44384;SDS011;30101;32.778;34.994;2022-10-16T20:41:37;17.90;;;5.47;;
44384;SDS011;30101;32.778;34.994;2022-10-16T20:46:40;14.88;;;5.97;;
44384;SDS011;30101;32.778;34.994;2022-10-16T20:51:44;20.90;;;4.72;;
44384;SDS011;30101;32.778;34.994;2022-10-16T20:56:47;11.95;;;4.43;;
44384;SDS011;30101;32.778;34.994;2022-10-16T21:01:51;21.00;;;5.95;;
44384;SDS011;30101;32.778;34.994;2022-10-16T21:06:55;15.05;;;3.78;;
44384;SDS011;30101;32.778;34.994;2022-10-16T21:12:00;17.67;;;4.35;;
44384;SDS011;30101;32.778;34.994;2022-10-16T21:17:03;16.98;;;4.25;;
44384;SDS011;30101;32.778;34.994;2022-10-16T21:22:07;18.27;;;5.38;;
44384;SDS011;30101;32.778;34.994;2022-10-16T21:27:11;20.33;;;4.40;;
44384;SDS011;30101;32.778;34.994;2022-10-16T21:32:15;15.15;;;4.00;;
44384;SDS011;30101;32.778;34.994;2022-10-16T21:37:18;22.27;;;4.15;;
44384;SDS011;30101;32.778;34.994;2022-10-16T21:42:22;21.05;;;5.72;;
44384;SDS011;30101;32.778;34.994;2022-10-16T21:47:26;21.25;;;4.68;;
44384;SDS011;30101;32.778;34.994;2022-10-16T21:52:29;15.00;;;4.38;;
44384;SDS011;30101;32.778;34.994;2022-10-16T21:57:33;12.25;;;4.28;;
44384;SDS011;30101;32.778;34.994;2022-10-16T22:02:36;15.65;;;5.10;;
44384;SDS011;30101;32.778;34.994;2022-10-16T22:07:40;17.42;;;4.55;;
44384;SDS011;30101;32.778;34.994;2022-10-16T22:12:43;19.40;;;4.35;;
44384;SDS011;30101;32.778;34.994;2022-10-16T22:17:48;11.93;;;4.18;;
44384;SDS011;30101;32.778;34.994;2022-10-16T22:22:58;18.48;;;4.13;;
44384;SDS011;30101;32.778;34.994;2022-10-16T22:28:02;20.40;;;5.25;;
44384;SDS011;30101;32.778;34.994;2022-10-16T22:33:07;17.80;;;4.63;;
44384;SDS011;30101;32.778;34.994;2022-10-16T22:38:11;20.55;;;4.70;;
44384;SDS011;30101;32.778;34.994;2022-10-16T22:43:15;18.60;;;4.57;;
44384;SDS011;30101;32.778;34.994;2022-10-16T22:48:19;17.55;;;5.63;;
44384;SDS011;30101;32.778;34.994;2022-10-16T22:53:22;21.45;;;4.60;;
44384;SDS011;30101;32.778;34.994;2022-10-16T22:58:26;25.08;;;4.82;;
44384;SDS011;30101;32.778;34.994;2022-10-16T23:03:30;18.48;;;4.80;;
44384;SDS011;30101;32.778;34.994;2022-10-16T23:08:33;16.63;;;5.60;;
44384;SDS011;30101;32.778;34.994;2022-10-16T23:13:37;20.58;;;5.07;;
44384;SDS011;30101;32.778;34.994;2022-10-16T23:18:42;19.40;;;5.15;;
44384;SDS011;30101;32.778;34.994;2022-10-16T23:23:46;21.48;;;4.80;;
44384;SDS011;30101;32.778;34.994;2022-10-16T23:28:51;21.80;;;6.00;;
44384;SDS011;30101;32.778;34.994;2022-10-16T23:33:57;15.93;;;5.00;;
44384;SDS011;30101;32.778;34.994;2022-10-16T23:39:02;13.30;;;5.20;;
44384;SDS011;30101;32.778;34.994;2022-10-16T23:44:05;34.78;;;6.80;;
44384;SDS011;30101;32.778;34.994;2022-10-16T23:49:09;23.65;;;6.07;;
44384;SDS011;30101;32.778;34.994;2022-10-16T23:54:13;26.73;;;5.72;;
44384;SDS011;30101;32.778;34.994;2022-10-16T23:59:21;19.40;;;6.15;;
